Time;durP1;ratioP1;P1;durP2;ratioP2;P2;SDS_P1;SDS_P2;PMS_P1;PMS_P2;Temp;Humidity;BMP_temperature;BMP_pressure;BME280_temperature;BME280_humidity;BME280_pressure;Samples;Min_cycle;Max_cycle;Signal;HPM_P1;HPM_P2
2021/03/30 00:00:11;;;;;;;;;;;19.40;54.00;;;;;;5054899;28;1875;-69
2021/03/30 00:02:37;;;;;;;;;;;19.40;54.10;;;;;;5037184;28;1147;-69
2021/03/30 00:05:03;;;;;;;;;;;19.40;54.10;;;;;;5055051;28;1086;-69
2021/03/30 00:07:28;;;;;;;;;;;19.40;54.10;;;;;;5045498;28;1410;-69
2021/03/30 00:09:53;;;;;;;;;;;19.40;54.10;;;;;;5050910;28;1369;-69
2021/03/30 00:12:19;;;;;;;;;;;19.40;54.10;;;;;;5054992;28;1159;-69
2021/03/30 00:14:44;;;;;;;;;;;19.40;54.20;;;;;;5038202;28;1204;-69
2021/03/30 00:17:10;;;;;;;;;;;19.40;54.20;;;;;;5034728;28;887;-68
2021/03/30 00:19:35;;;;;;;;;;;19.40;54.20;;;;;;5034698;28;1965;-68
2021/03/30 00:22:01;;;;;;;;;;;19.40;54.20;;;;;;5034825;28;1044;-68
2021/03/30 00:24:26;;;;;;;;;;;19.40;54.20;;;;;;5035236;28;1143;-69
2021/03/30 00:26:51;;;;;;;;;;;19.40;54.20;;;;;;5034728;28;1081;-68
2021/03/30 00:29:17;;;;;;;;;;;19.40;54.30;;;;;;5048212;28;1246;-68
2021/03/30 00:31:42;;;;;;;;;;;19.40;54.30;;;;;;5043167;28;810;-68
2021/03/30 00:34:08;;;;;;;;;;;19.40;54.90;;;;;;5054498;28;1454;-68
2021/03/30 00:36:33;;;;;;;;;;;19.40;54.30;;;;;;5054648;28;1040;-68
2021/03/30 00:38:58;;;;;;;;;;;19.40;54.30;;;;;;5053124;28;1732;-69
2021/03/30 00:41:24;;;;;;;;;;;19.30;54.30;;;;;;5042696;28;1894;-68
2021/03/30 00:43:49;;;;;;;;;;;19.40;54.30;;;;;;5038658;28;1147;-68
2021/03/30 00:46:15;;;;;;;;;;;19.30;54.30;;;;;;5034242;28;1096;-68
2021/03/30 00:48:41;;;;;;;;;;;19.30;54.30;;;;;;5034106;28;1299;-68
2021/03/30 00:51:06;;;;;;;;;;;19.30;54.30;;;;;;5016783;28;816;-68
2021/03/30 00:53:32;;;;;;;;;;;19.30;54.30;;;;;;5047686;28;833;-68
2021/03/30 00:55:57;;;;;;;;;;;19.30;54.30;;;;;;5042540;28;1159;-68
2021/03/30 00:58:23;;;;;;;;;;;19.30;54.30;;;;;;5021323;28;1064;-68
2021/03/30 01:00:48;;;;;;;;;;;19.30;54.30;;;;;;5027854;28;1894;-68
2021/03/30 01:03:14;;;;;;;;;;;19.30;54.40;;;;;;5033951;28;1299;-68
2021/03/30 01:05:39;;;;;;;;;;;19.30;54.40;;;;;;5033891;28;1072;-68
2021/03/30 01:08:08;;;;;;;;;;;19.30;54.40;;;;;;5048016;28;1387;-67
2021/03/30 01:11:06;;;;;;;;;;;19.30;54.40;;;;;;5036370;28;1209;-69
2021/03/30 01:13:50;;;;;;;;;;;19.30;54.40;;;;;;5000825;28;1188;-70
2021/03/30 01:16:16;;;;;;;;;;;19.30;54.40;;;;;;5048921;28;1191;-70
2021/03/30 01:18:46;;;;;;;;;;;19.30;54.40;;;;;;5035736;28;1280;-68
2021/03/30 01:21:18;;;;;;;;;;;19.30;54.40;;;;;;5035821;28;1973;-68
2021/03/30 01:23:54;;;;;;;;;;;19.30;54.50;;;;;;5035867;28;1086;-68
2021/03/30 01:26:25;;;;;;;;;;;19.30;54.50;;;;;;5035793;28;1152;-69
2021/03/30 01:29:00;;;;;;;;;;;19.30;54.50;;;;;;5053181;28;1270;-68
2021/03/30 01:31:25;;;;;;;;;;;19.30;54.50;;;;;;5047396;28;839;-68
2021/03/30 01:33:51;;;;;;;;;;;19.30;54.50;;;;;;5041950;28;1167;-68
2021/03/30 01:36:17;;;;;;;;;;;19.30;54.50;;;;;;5046081;28;1127;-68
2021/03/30 01:38:42;;;;;;;;;;;19.30;54.50;;;;;;5027902;28;1415;-68
2021/03/30 01:41:08;;;;;;;;;;;19.30;54.50;;;;;;5034242;28;2017;-68
2021/03/30 01:43:33;;;;;;;;;;;19.20;54.50;;;;;;5015726;28;930;-68
2021/03/30 01:45:59;;;;;;;;;;;19.30;54.60;;;;;;5034681;28;958;-68
2021/03/30 01:48:24;;;;;;;;;;;19.30;54.60;;;;;;5035352;28;1037;-68
2021/03/30 01:50:52;;;;;;;;;;;19.30;54.60;;;;;;5035318;28;1232;-68
2021/03/30 01:53:17;;;;;;;;;;;19.30;54.60;;;;;;5035407;28;1072;-68
2021/03/30 01:55:43;;;;;;;;;;;19.30;54.60;;;;;;5034352;28;1175;-68
2021/03/30 01:58:09;;;;;;;;;;;19.30;54.60;;;;;;5015516;28;1223;-68
2021/03/30 02:00:36;;;;;;;;;;;19.30;54.60;;;;;;5032991;28;1979;-68
2021/03/30 02:03:02;;;;;;;;;;;19.20;54.60;;;;;;5033178;28;1148;-68
2021/03/30 02:05:27;;;;;;;;;;;19.20;54.60;;;;;;5015328;28;1183;-68
2021/03/30 02:07:53;;;;;;;;;;;19.20;54.60;;;;;;5032821;28;1138;-68
2021/03/30 02:10:29;;;;;;;;;;;19.30;54.60;;;;;;5028309;28;1281;-68
2021/03/30 02:12:55;;;;;;;;;;;19.20;54.60;;;;;;5032877;28;1083;-68
2021/03/30 02:15:20;;;;;;;;;;;19.20;54.70;;;;;;5015486;28;784;-68
2021/03/30 02:17:48;;;;;;;;;;;19.20;54.70;;;;;;5032828;28;918;-68
2021/03/30 02:20:19;;;;;;;;;;;19.20;54.70;;;;;;5015174;28;1977;-68
2021/03/30 02:22:49;;;;;;;;;;;19.20;54.70;;;;;;5015102;28;1101;-68
2021/03/30 02:25:15;;;;;;;;;;;19.20;54.70;;;;;;5015705;28;1064;-68
2021/03/30 02:27:41;;;;;;;;;;;19.30;54.70;;;;;;5028253;28;1163;-68
2021/03/30 02:30:07;;;;;;;;;;;19.20;54.70;;;;;;5023502;28;1279;-68
2021/03/30 02:32:33;;;;;;;;;;;19.20;54.70;;;;;;5021239;28;1065;-68
2021/03/30 02:34:58;;;;;;;;;;;19.20;54.70;;;;;;5034946;28;807;-68
2021/03/30 02:37:24;;;;;;;;;;;19.20;54.70;;;;;;5021295;28;1068;-68
2021/03/30 02:39:49;;;;;;;;;;;19.20;54.70;;;;;;5027266;28;1902;-69
2021/03/30 02:42:15;;;;;;;;;;;19.20;54.70;;;;;;5010261;28;1288;-69
2021/03/30 02:44:41;;;;;;;;;;;19.20;54.80;;;;;;5015086;28;1469;-67
2021/03/30 02:47:06;;;;;;;;;;;19.20;54.70;;;;;;5008992;28;1338;-69
2021/03/30 02:49:31;;;;;;;;;;;19.20;54.70;;;;;;5032732;28;1208;-69
2021/03/30 02:51:57;;;;;;;;;;;19.20;54.80;;;;;;5046209;28;1167;-69
2021/03/30 02:54:22;;;;;;;;;;;19.20;54.80;;;;;;4998612;28;1323;-69
2021/03/30 02:56:48;;;;;;;;;;;19.20;54.80;;;;;;5028466;28;1053;-69
2021/03/30 02:59:14;;;;;;;;;;;19.20;54.80;;;;;;5045261;28;1902;-69
2021/03/30 03:01:39;;;;;;;;;;;19.20;54.80;;;;;;5027980;28;1089;-69
2021/03/30 03:04:05;;;;;;;;;;;19.20;54.80;;;;;;5032764;28;1064;-69
2021/03/30 03:06:30;;;;;;;;;;;19.20;54.80;;;;;;5047985;28;1204;-67
2021/03/30 03:08:56;;;;;;;;;;;19.20;54.80;;;;;;5025932;28;1281;-67
2021/03/30 03:11:21;;;;;;;;;;;19.20;54.60;;;;;;5024149;28;1186;-67
2021/03/30 03:13:47;;;;;;;;;;;19.20;54.50;;;;;;5019706;28;1268;-67
2021/03/30 03:16:13;;;;;;;;;;;19.30;54.50;;;;;;5035962;28;1316;-67
2021/03/30 03:18:42;;;;;;;;;;;19.30;54.40;;;;;;5025856;28;1288;-69
2021/03/30 03:21:10;;;;;;;;;;;19.40;54.40;;;;;;5024756;28;1972;-69
2021/03/30 03:23:39;;;;;;;;;;;19.50;54.30;;;;;;5029712;28;1115;-69
2021/03/30 03:26:14;;;;;;;;;;;19.50;54.00;;;;;;5038220;28;1123;-69
2021/03/30 03:28:42;;;;;;;;;;;19.60;53.90;;;;;;5046062;28;1366;-69
2021/03/30 03:31:08;;;;;;;;;;;19.70;53.70;;;;;;5031369;28;1171;-69
2021/03/30 03:33:34;;;;;;;;;;;19.80;53.50;;;;;;5037934;28;1151;-68
2021/03/30 03:36:00;;;;;;;;;;;19.90;53.30;;;;;;5042305;28;1123;-68
2021/03/30 03:38:25;;;;;;;;;;;20.00;53.20;;;;;;5017919;28;1580;-68
2021/03/30 03:40:51;;;;;;;;;;;20.10;53.00;;;;;;5034103;28;1894;-70
2021/03/30 03:43:16;;;;;;;;;;;20.10;52.80;;;;;;5035807;28;1087;-69
2021/03/30 03:45:41;;;;;;;;;;;20.20;52.70;;;;;;5035401;28;1156;-69
2021/03/30 03:48:07;;;;;;;;;;;20.30;52.60;;;;;;5035167;28;1120;-69
2021/03/30 03:50:32;;;;;;;;;;;20.30;52.50;;;;;;5035570;28;1354;-69
2021/03/30 03:52:58;;;;;;;;;;;20.40;52.40;;;;;;5035232;28;1060;-69
2021/03/30 03:55:23;;;;;;;;;;;20.40;52.30;;;;;;5035330;28;1295;-69
2021/03/30 03:57:56;;;;;;;;;;;20.40;52.20;;;;;;5017395;28;1276;-69
2021/03/30 04:00:22;;;;;;;;;;;20.50;52.10;;;;;;5017653;28;1973;-70
2021/03/30 04:02:49;;;;;;;;;;;20.50;52.00;;;;;;5017489;28;1081;-69
2021/03/30 04:05:16;;;;;;;;;;;20.50;51.90;;;;;;5017471;28;1144;-69
2021/03/30 04:07:52;;;;;;;;;;;20.60;51.90;;;;;;5045880;28;1076;-70
2021/03/30 04:10:21;;;;;;;;;;;20.60;51.90;;;;;;5036977;28;1253;-69
2021/03/30 04:12:47;;;;;;;;;;;20.60;51.80;;;;;;5054289;28;1685;-69
2021/03/30 04:15:13;;;;;;;;;;;20.70;51.80;;;;;;5016851;28;1471;-70
2021/03/30 04:17:39;;;;;;;;;;;20.70;51.70;;;;;;5033491;28;1073;-69
2021/03/30 04:20:09;;;;;;;;;;;20.70;51.70;;;;;;5017024;28;1983;-69
2021/03/30 04:22:34;;;;;;;;;;;20.80;51.60;;;;;;5030600;28;1172;-68
2021/03/30 04:24:59;;;;;;;;;;;20.80;51.60;;;;;;5041275;28;1151;-69
2021/03/30 04:27:25;;;;;;;;;;;20.80;51.50;;;;;;5023495;28;1124;-69
2021/03/30 04:29:50;;;;;;;;;;;20.80;51.50;;;;;;5054471;28;1212;-69
2021/03/30 04:32:16;;;;;;;;;;;20.80;51.50;;;;;;5054448;28;1115;-69
2021/03/30 04:34:41;;;;;;;;;;;20.90;51.50;;;;;;5054401;28;1345;-69
2021/03/30 04:37:06;;;;;;;;;;;20.90;51.40;;;;;;5054276;28;1091;-69
2021/03/30 04:39:32;;;;;;;;;;;20.90;51.40;;;;;;5036340;28;1894;-68
2021/03/30 04:41:57;;;;;;;;;;;20.90;51.40;;;;;;5054191;28;1100;-68
2021/03/30 04:44:23;;;;;;;;;;;21.00;51.30;;;;;;5035413;28;990;-68
2021/03/30 04:46:48;;;;;;;;;;;21.00;51.30;;;;;;5034362;28;1112;-68
2021/03/30 04:49:14;;;;;;;;;;;21.00;51.30;;;;;;5033965;28;1415;-68
2021/03/30 04:51:39;;;;;;;;;;;21.00;51.30;;;;;;5016616;28;1135;-68
2021/03/30 04:54:05;;;;;;;;;;;21.00;51.20;;;;;;5033965;28;1131;-68
2021/03/30 04:56:30;;;;;;;;;;;21.00;51.20;;;;;;5028318;28;1469;-68
2021/03/30 04:58:55;;;;;;;;;;;21.10;51.20;;;;;;5035074;28;1378;-68
2021/03/30 05:01:21;;;;;;;;;;;21.10;51.20;;;;;;5034074;28;1967;-69
2021/03/30 05:03:46;;;;;;;;;;;21.10;51.20;;;;;;5034001;28;1175;-69
2021/03/30 05:06:12;;;;;;;;;;;21.10;51.80;;;;;;5033987;28;1190;-70
2021/03/30 05:08:37;;;;;;;;;;;21.10;51.10;;;;;;5046771;28;1366;-70
2021/03/30 05:11:03;;;;;;;;;;;21.10;51.10;;;;;;5033711;28;1151;-71
2021/03/30 05:13:28;;;;;;;;;;;21.10;51.10;;;;;;5017865;28;1279;-70
2021/03/30 05:15:54;;;;;;;;;;;21.20;51.10;;;;;;5042504;28;1056;-69
2021/03/30 05:18:19;;;;;;;;;;;21.20;51.10;;;;;;5033479;28;1084;-70
2021/03/30 05:20:44;;;;;;;;;;;21.20;51.10;;;;;;5016025;28;1898;-70
2021/03/30 05:23:10;;;;;;;;;;;21.20;51.10;;;;;;5046840;28;1025;-69
2021/03/30 05:25:36;;;;;;;;;;;21.20;51.00;;;;;;5026856;28;1108;-69
2021/03/30 05:28:02;;;;;;;;;;;21.20;51.00;;;;;;5035172;28;1334;-69
2021/03/30 05:30:28;;;;;;;;;;;21.20;51.00;;;;;;5053604;28;1196;-68
2021/03/30 05:32:53;;;;;;;;;;;21.20;51.00;;;;;;5053307;28;1341;-68
2021/03/30 05:35:18;;;;;;;;;;;21.20;51.00;;;;;;5053326;28;1052;-69
2021/03/30 05:37:44;;;;;;;;;;;21.20;51.10;;;;;;5052953;28;1092;-68
2021/03/30 05:40:10;;;;;;;;;;;21.20;51.10;;;;;;5052994;28;1901;-68
2021/03/30 05:42:36;;;;;;;;;;;21.20;51.10;;;;;;5035402;28;1297;-68
2021/03/30 05:45:03;;;;;;;;;;;21.20;51.10;;;;;;5035704;28;1304;-69
2021/03/30 05:47:29;;;;;;;;;;;21.20;51.20;;;;;;5034992;28;1123;-69
2021/03/30 05:49:55;;;;;;;;;;;21.20;51.20;;;;;;5053111;28;1328;-70
2021/03/30 05:52:29;;;;;;;;;;;21.20;51.30;;;;;;5053523;28;1454;-69
2021/03/30 05:54:55;;;;;;;;;;;21.10;51.30;;;;;;5036403;28;1163;-69
2021/03/30 05:57:23;;;;;;;;;;;21.10;51.30;;;;;;5034977;28;1354;-69
2021/03/30 05:59:50;;;;;;;;;;;21.10;51.40;;;;;;5052940;28;1955;-69
2021/03/30 06:02:22;;;;;;;;;;;21.10;51.40;;;;;;5052846;28;1104;-68
2021/03/30 06:04:48;;;;;;;;;;;21.10;51.50;;;;;;5018394;28;1169;-68
2021/03/30 06:07:13;;;;;;;;;;;21.10;51.60;;;;;;5021821;28;1131;-69
2021/03/30 06:09:40;;;;;;;;;;;21.00;51.30;;;;;;5018209;28;1341;-69
2021/03/30 06:12:06;;;;;;;;;;;21.00;49.70;;;;;;5033018;28;1261;-69
2021/03/30 06:14:38;;;;;;;;;;;20.90;48.50;;;;;;5016697;28;1303;-70
2021/03/30 06:17:04;;;;;;;;;;;20.80;47.30;;;;;;5034854;28;1080;-70
2021/03/30 06:19:30;;;;;;;;;;;20.70;47.60;;;;;;5052510;28;1906;-70
2021/03/30 06:21:59;;;;;;;;;;;20.80;48.00;;;;;;5027567;28;1827;-71
2021/03/30 06:24:25;;;;;;;;;;;20.70;48.30;;;;;;5032307;28;1870;-71
2021/03/30 06:26:51;;;;;;;;;;;20.70;48.60;;;;;;5027925;28;1240;-71
2021/03/30 06:29:43;;;;;;;;;;;20.70;48.90;;;;;;5020931;28;1361;-70
2021/03/30 06:32:10;;;;;;;;;;;20.70;49.20;;;;;;5043137;28;1357;-69
2021/03/30 06:34:36;;;;;;;;;;;20.70;49.40;;;;;;5015190;28;1376;-66
2021/03/30 06:37:02;;;;;;;;;;;20.70;50.20;;;;;;5014759;28;1289;-68
2021/03/30 06:39:34;;;;;;;;;;;20.70;49.70;;;;;;5014930;28;1964;-68
2021/03/30 06:42:18;;;;;;;;;;;20.70;49.90;;;;;;5018145;28;1364;-67
2021/03/30 06:44:43;;;;;;;;;;;20.70;50.00;;;;;;5021634;28;1256;-68
2021/03/30 06:47:13;;;;;;;;;;;20.70;50.20;;;;;;5036278;28;1318;-68
2021/03/30 06:49:58;;;;;;;;;;;20.70;50.30;;;;;;5036122;28;1346;-72
2021/03/30 06:52:28;;;;;;;;;;;20.60;50.40;;;;;;5037626;28;1311;-70
2021/03/30 06:54:53;;;;;;;;;;;20.60;50.50;;;;;;5043727;28;1347;-69
2021/03/30 06:57:38;;;;;;;;;;;20.60;50.60;;;;;;5035926;28;1425;-70
2021/03/30 07:00:04;;;;;;;;;;;20.60;50.70;;;;;;5027176;28;2023;-70
2021/03/30 07:02:30;;;;;;;;;;;20.60;50.80;;;;;;5027067;28;1593;-72
2021/03/30 07:04:55;;;;;;;;;;;20.60;50.90;;;;;;5026817;28;1685;-71
2021/03/30 07:07:21;;;;;;;;;;;20.60;51.00;;;;;;5048558;28;1402;-69
2021/03/30 07:09:47;;;;;;;;;;;20.50;51.00;;;;;;5015072;28;1661;-72
2021/03/30 07:12:12;;;;;;;;;;;20.50;51.30;;;;;;5043573;28;1263;-72
2021/03/30 07:14:38;;;;;;;;;;;20.50;52.10;;;;;;5026017;28;1428;-72
2021/03/30 07:17:03;;;;;;;;;;;20.50;52.70;;;;;;5042411;28;1161;-72
2021/03/30 07:19:30;;;;;;;;;;;20.50;52.80;;;;;;5025962;28;1961;-72
2021/03/30 07:22:02;;;;;;;;;;;20.50;52.80;;;;;;5014924;28;1427;-72
2021/03/30 07:24:30;;;;;;;;;;;20.50;52.80;;;;;;5062387;23;2635;-67
2021/03/30 07:27:00;;;;;;;;;;;20.50;53.00;;;;;;5096821;28;1674;-66
2021/03/30 07:29:29;;;;;;;;;;;20.50;53.10;;;;;;5100046;28;1282;-66
2021/03/30 07:32:13;;;;;;;;;;;20.50;53.20;;;;;;5084776;28;1249;-66
2021/03/30 07:34:42;;;;;;;;;;;20.50;53.30;;;;;;5083346;28;1451;-64
2021/03/30 07:37:11;;;;;;;;;;;20.50;53.40;;;;;;5077972;28;1105;-63
2021/03/30 07:39:43;;;;;;;;;;;20.50;53.80;;;;;;5077455;28;2042;-63
2021/03/30 07:42:09;;;;;;;;;;;20.50;53.80;;;;;;5082204;28;1663;-63
2021/03/30 07:44:35;;;;;;;;;;;20.50;53.80;;;;;;5079197;28;1576;-64
2021/03/30 07:47:00;;;;;;;;;;;20.50;53.80;;;;;;5068745;28;1706;-63
2021/03/30 07:49:29;;;;;;;;;;;20.50;53.90;;;;;;5071637;28;1251;-63
2021/03/30 07:51:56;;;;;;;;;;;20.50;53.90;;;;;;5058714;28;1520;-63
2021/03/30 07:54:23;;;;;;;;;;;20.50;53.90;;;;;;5055543;28;1684;-64
2021/03/30 07:56:50;;;;;;;;;;;20.50;53.90;;;;;;5057953;28;1583;-64
2021/03/30 07:59:34;;;;;;;;;;;20.50;54.00;;;;;;5070483;28;1547;-66
2021/03/30 08:01:59;;;;;;;;;;;20.40;54.00;;;;;;5057213;28;1602;-66
2021/03/30 08:04:25;;;;;;;;;;;20.50;54.10;;;;;;5055181;28;1370;-66
2021/03/30 08:06:51;;;;;;;;;;;20.40;54.10;;;;;;5059173;28;1638;-63
2021/03/30 08:09:19;;;;;;;;;;;20.40;54.20;;;;;;5075190;28;1472;-64
2021/03/30 08:11:48;;;;;;;;;;;20.40;54.30;;;;;;5075160;28;1716;-64
2021/03/30 08:14:20;;;;;;;;;;;20.40;54.30;;;;;;5063572;28;1505;-63
2021/03/30 08:16:46;;;;;;;;;;;20.40;54.40;;;;;;5055146;28;1499;-63
2021/03/30 08:19:12;;;;;;;;;;;20.40;54.40;;;;;;5054696;28;1407;-63
2021/03/30 08:21:52;;;;;;;;;;;20.40;54.50;;;;;;5054818;28;1902;-63
2021/03/30 08:24:18;;;;;;;;;;;20.40;54.60;;;;;;5054620;28;1419;-63
2021/03/30 08:26:45;;;;;;;;;;;20.40;54.70;;;;;;5053412;28;1612;-64
2021/03/30 08:29:11;;;;;;;;;;;20.40;54.70;;;;;;5054363;28;1644;-63
2021/03/30 08:31:46;;;;;;;;;;;20.40;54.80;;;;;;5054980;28;1411;-63
2021/03/30 08:34:15;;;;;;;;;;;20.40;54.90;;;;;;5054512;28;1641;-63
2021/03/30 08:36:44;;;;;;;;;;;20.40;55.00;;;;;;5054774;28;1447;-63
2021/03/30 08:39:10;;;;;;;;;;;20.40;55.00;;;;;;5054012;28;1641;-64
2021/03/30 08:41:41;;;;;;;;;;;20.40;55.10;;;;;;5053380;28;1968;-64
2021/03/30 08:44:13;;;;;;;;;;;20.40;55.30;;;;;;5054241;28;1662;-63
2021/03/30 08:46:39;;;;;;;;;;;20.40;55.80;;;;;;5054691;28;1315;-63
2021/03/30 08:49:20;;;;;;;;;;;20.40;55.50;;;;;;5052973;28;1694;-63
2021/03/30 08:51:45;;;;;;;;;;;20.40;55.70;;;;;;5054292;28;1377;-63
2021/03/30 08:54:11;;;;;;;;;;;20.40;55.70;;;;;;5054253;28;1739;-63
2021/03/30 08:56:36;;;;;;;;;;;20.40;55.70;;;;;;5054351;28;1662;-64
2021/03/30 08:59:02;;;;;;;;;;;20.40;55.70;;;;;;5052502;28;1636;-63
2021/03/30 09:01:27;;;;;;;;;;;20.40;55.60;;;;;;5052880;28;1898;-63
2021/03/30 09:03:53;;;;;;;;;;;20.40;55.60;;;;;;5051910;28;1340;-63
2021/03/30 09:06:37;;;;;;;;;;;20.40;55.70;;;;;;5054004;28;1495;-64
2021/03/30 09:09:03;;;;;;;;;;;20.40;55.60;;;;;;5053683;28;1278;-63
2021/03/30 09:11:31;;;;;;;;;;;20.40;55.60;;;;;;5054202;28;1524;-63
2021/03/30 09:14:00;;;;;;;;;;;20.30;55.60;;;;;;5054868;28;1446;-64
2021/03/30 09:16:26;;;;;;;;;;;20.40;55.70;;;;;;5053797;28;1654;-63
2021/03/30 09:18:52;;;;;;;;;;;20.40;55.80;;;;;;5052051;28;1378;-64
2021/03/30 09:21:23;;;;;;;;;;;20.30;55.80;;;;;;5054059;28;1981;-64
2021/03/30 09:23:49;;;;;;;;;;;20.30;55.90;;;;;;5053814;28;1636;-64
2021/03/30 09:26:16;;;;;;;;;;;20.30;55.90;;;;;;5052511;28;1456;-64
2021/03/30 09:28:42;;;;;;;;;;;20.30;55.90;;;;;;5053314;28;1371;-64
2021/03/30 09:31:08;;;;;;;;;;;20.30;56.00;;;;;;5053600;28;1357;-64
2021/03/30 09:33:33;;;;;;;;;;;20.30;56.00;;;;;;5052246;28;1680;-64
2021/03/30 09:35:59;;;;;;;;;;;20.30;55.90;;;;;;5053637;28;1656;-64
2021/03/30 09:38:25;;;;;;;;;;;20.30;56.00;;;;;;5053273;28;1326;-66
2021/03/30 09:40:50;;;;;;;;;;;20.30;55.90;;;;;;5052418;28;1906;-65
2021/03/30 09:43:19;;;;;;;;;;;20.30;56.00;;;;;;5053307;28;1662;-66
2021/03/30 09:45:44;;;;;;;;;;;20.30;56.00;;;;;;5062489;28;1673;-66
2021/03/30 09:48:10;;;;;;;;;;;20.30;56.20;;;;;;5059762;28;1288;-66
2021/03/30 09:50:42;;;;;;;;;;;20.30;56.20;;;;;;5067711;28;1589;-65
2021/03/30 09:53:08;;;;;;;;;;;20.30;56.50;;;;;;5065231;28;1367;-65
2021/03/30 09:55:37;;;;;;;;;;;20.30;56.60;;;;;;5064869;28;1886;-65
2021/03/30 09:58:09;;;;;;;;;;;20.30;56.70;;;;;;5052292;28;1348;-65
2021/03/30 10:00:36;;;;;;;;;;;20.30;56.80;;;;;;5051033;28;1957;-65
2021/03/30 10:03:02;;;;;;;;;;;20.30;56.90;;;;;;5052504;28;1358;-65
2021/03/30 10:05:34;;;;;;;;;;;20.20;57.00;;;;;;5050956;28;1451;-65
2021/03/30 10:07:59;;;;;;;;;;;20.20;57.10;;;;;;5065390;28;1550;-65
2021/03/30 10:10:24;;;;;;;;;;;20.30;57.40;;;;;;5072343;28;1735;-67
2021/03/30 10:12:53;;;;;;;;;;;20.30;57.70;;;;;;5072311;28;1603;-65
2021/03/30 10:15:28;;;;;;;;;;;20.20;57.40;;;;;;5052246;28;1332;-65
2021/03/30 10:17:53;;;;;;;;;;;20.20;57.40;;;;;;5050629;28;1698;-68
2021/03/30 10:20:19;;;;;;;;;;;20.20;57.30;;;;;;5052262;28;1901;-68
2021/03/30 10:22:48;;;;;;;;;;;20.20;57.50;;;;;;5052129;28;1338;-68
2021/03/30 10:25:34;;;;;;;;;;;20.20;57.50;;;;;;5051968;28;1639;-68
2021/03/30 10:28:00;;;;;;;;;;;20.20;57.60;;;;;;5051382;28;1765;-67
2021/03/30 10:30:33;;;;;;;;;;;20.20;57.80;;;;;;5052210;28;1653;-67
2021/03/30 10:33:00;;;;;;;;;;;20.20;57.90;;;;;;5050780;28;1660;-68
2021/03/30 10:35:25;;;;;;;;;;;20.20;58.00;;;;;;5052037;28;1611;-68
2021/03/30 10:37:51;;;;;;;;;;;20.20;58.10;;;;;;5051425;28;1414;-68
2021/03/30 10:40:17;;;;;;;;;;;20.20;58.30;;;;;;5050742;28;1963;-68
2021/03/30 10:42:42;;;;;;;;;;;20.20;58.30;;;;;;5051884;28;1134;-68
2021/03/30 10:45:11;;;;;;;;;;;20.20;58.30;;;;;;5051852;28;1348;-68
2021/03/30 10:47:48;;;;;;;;;;;20.20;58.30;;;;;;5051625;28;1720;-68
2021/03/30 10:50:16;;;;;;;;;;;20.20;58.20;;;;;;5051135;28;1658;-68
2021/03/30 10:52:43;;;;;;;;;;;20.20;58.20;;;;;;5049968;28;1482;-69
2021/03/30 10:55:10;;;;;;;;;;;20.20;58.00;;;;;;5049699;28;1693;-67
2021/03/30 10:57:39;;;;;;;;;;;20.20;58.00;;;;;;5050564;28;1657;-68
2021/03/30 11:00:07;;;;;;;;;;;20.20;57.90;;;;;;5050091;28;1898;-68
2021/03/30 11:02:32;;;;;;;;;;;20.20;57.80;;;;;;5050325;28;1347;-66
2021/03/30 11:04:59;;;;;;;;;;;20.20;57.80;;;;;;5051753;28;1638;-69
2021/03/30 11:07:24;;;;;;;;;;;20.20;57.80;;;;;;5060323;28;1378;-68
2021/03/30 11:09:50;;;;;;;;;;;20.20;57.70;;;;;;5070920;28;1701;-68
2021/03/30 11:12:15;;;;;;;;;;;20.20;57.90;;;;;;5071978;28;1571;-67
2021/03/30 11:14:41;;;;;;;;;;;20.20;57.90;;;;;;5056122;28;1501;-68
2021/03/30 11:17:06;;;;;;;;;;;20.20;57.90;;;;;;5049746;28;1616;-66
2021/03/30 11:19:32;;;;;;;;;;;20.20;57.90;;;;;;5051340;28;1902;-66
2021/03/30 11:21:57;;;;;;;;;;;20.20;57.80;;;;;;5051652;28;1668;-65
2021/03/30 11:24:24;;;;;;;;;;;20.20;57.90;;;;;;5050395;28;1411;-68
2021/03/30 11:26:51;;;;;;;;;;;20.20;57.80;;;;;;5053349;28;1685;-66
2021/03/30 11:34:35;;;;;;;;;;;20.20;57.90;;;;;;5055794;28;1508;-67
2021/03/30 11:37:12;;;;;;;;;;;20.20;57.90;;;;;;5055121;28;1351;-65
2021/03/30 11:39:37;;;;;;;;;;;20.20;57.90;;;;;;5053966;28;1902;-65
2021/03/30 11:42:03;;;;;;;;;;;20.10;57.70;;;;;;5054918;28;1570;-67
2021/03/30 11:44:29;;;;;;;;;;;20.10;57.90;;;;;;5055180;28;1647;-67
2021/03/30 11:46:54;;;;;;;;;;;20.20;57.90;;;;;;5055504;28;1635;-66
2021/03/30 11:49:20;;;;;;;;;;;20.20;58.00;;;;;;5054478;28;1561;-68
2021/03/30 11:51:45;;;;;;;;;;;20.20;57.90;;;;;;5055701;28;1296;-66
2021/03/30 11:54:11;;;;;;;;;;;20.20;57.90;;;;;;5055263;28;1690;-66
2021/03/30 11:56:36;;;;;;;;;;;20.10;57.90;;;;;;5055261;28;1344;-66
2021/03/30 11:59:01;;;;;;;;;;;20.20;57.90;;;;;;5067600;28;1935;-66
2021/03/30 12:01:27;;;;;;;;;;;20.20;57.90;;;;;;5067854;28;1955;-66
2021/03/30 12:03:52;;;;;;;;;;;20.20;57.90;;;;;;5069222;28;1699;-66
2021/03/30 12:06:18;;;;;;;;;;;20.20;57.90;;;;;;5075111;28;1414;-66
2021/03/30 12:08:43;;;;;;;;;;;20.20;57.90;;;;;;5055493;28;1658;-65
2021/03/30 12:11:08;;;;;;;;;;;20.10;57.90;;;;;;5058917;28;1948;-63
2021/03/30 12:13:34;;;;;;;;;;;20.10;57.90;;;;;;5075778;28;2032;-63
2021/03/30 12:15:59;;;;;;;;;;;20.10;58.00;;;;;;5075093;28;2074;-65
2021/03/30 12:18:25;;;;;;;;;;;20.10;58.10;;;;;;5069760;28;1694;-63
2021/03/30 12:20:50;;;;;;;;;;;20.10;58.10;;;;;;5061652;28;1886;-63
2021/03/30 12:23:16;;;;;;;;;;;20.10;58.20;;;;;;5053270;28;1734;-65
2021/03/30 12:25:41;;;;;;;;;;;20.20;58.30;;;;;;5054287;28;1196;-63
2021/03/30 12:28:06;;;;;;;;;;;20.10;58.20;;;;;;5054285;28;1682;-66
2021/03/30 12:30:32;;;;;;;;;;;20.10;58.20;;;;;;5054563;28;1710;-65
2021/03/30 12:32:58;;;;;;;;;;;20.10;58.30;;;;;;5054940;28;1413;-67
2021/03/30 12:35:23;;;;;;;;;;;20.10;58.30;;;;;;5054556;28;1409;-66
2021/03/30 12:37:49;;;;;;;;;;;20.10;58.20;;;;;;5052361;28;1436;-66
2021/03/30 12:40:14;;;;;;;;;;;20.10;58.30;;;;;;5053365;28;1914;-65
2021/03/30 12:42:40;;;;;;;;;;;20.10;58.30;;;;;;5052766;28;1506;-65
2021/03/30 12:45:05;;;;;;;;;;;20.10;58.30;;;;;;5053982;28;1687;-65
2021/03/30 12:47:31;;;;;;;;;;;20.10;58.30;;;;;;5052838;28;1698;-65
2021/03/30 12:49:56;;;;;;;;;;;20.10;58.20;;;;;;5054272;28;1387;-65
2021/03/30 12:52:22;;;;;;;;;;;20.10;58.30;;;;;;5053595;28;1746;-65
2021/03/30 12:54:47;;;;;;;;;;;20.10;58.40;;;;;;5053845;28;1388;-65
2021/03/30 12:57:12;;;;;;;;;;;20.10;58.30;;;;;;5053846;28;1377;-65
2021/03/30 12:59:38;;;;;;;;;;;20.10;58.40;;;;;;5053766;28;1902;-65
2021/03/30 13:02:03;;;;;;;;;;;20.10;58.40;;;;;;5053625;28;1411;-65
2021/03/30 13:04:29;;;;;;;;;;;20.10;58.30;;;;;;5058667;28;1797;-66
2021/03/30 13:06:54;;;;;;;;;;;20.10;58.30;;;;;;5075285;28;1386;-66
2021/03/30 13:09:20;;;;;;;;;;;20.10;58.30;;;;;;5063832;28;1386;-64
2021/03/30 13:11:45;;;;;;;;;;;20.10;58.30;;;;;;5073905;28;1408;-66
2021/03/30 13:14:10;;;;;;;;;;;20.10;58.40;;;;;;5062905;28;1487;-66
2021/03/30 13:16:36;;;;;;;;;;;20.10;58.40;;;;;;5053850;28;1712;-65
2021/03/30 13:19:01;;;;;;;;;;;20.10;58.50;;;;;;5053566;28;1398;-66
2021/03/30 13:21:27;;;;;;;;;;;20.10;58.50;;;;;;5052478;28;1906;-66
2021/03/30 13:23:54;;;;;;;;;;;20.10;58.50;;;;;;5053466;28;1358;-66
2021/03/30 13:26:20;;;;;;;;;;;20.10;58.60;;;;;;5081905;22;3788;-71
2021/03/30 13:28:45;;;;;;;;;;;20.10;58.50;;;;;;5073906;28;1477;-71
2021/03/30 13:31:11;;;;;;;;;;;20.10;58.60;;;;;;5073155;28;1562;-71
2021/03/30 13:33:36;;;;;;;;;;;20.10;58.60;;;;;;5076352;28;1274;-71
2021/03/30 13:36:01;;;;;;;;;;;20.10;58.50;;;;;;5073433;28;1386;-70
2021/03/30 13:38:27;;;;;;;;;;;20.10;58.50;;;;;;5072984;28;1506;-70
2021/03/30 13:40:55;;;;;;;;;;;20.10;58.50;;;;;;5073005;28;1969;-69
2021/03/30 13:43:20;;;;;;;;;;;20.10;58.50;;;;;;5079575;28;1350;-69
2021/03/30 13:45:46;;;;;;;;;;;20.00;58.50;;;;;;5074985;28;1645;-70
2021/03/30 13:48:11;;;;;;;;;;;20.00;58.50;;;;;;5071491;28;1569;-70
2021/03/30 13:50:37;;;;;;;;;;;20.10;58.50;;;;;;5072846;28;1355;-70
2021/03/30 13:53:02;;;;;;;;;;;20.10;58.60;;;;;;5059578;28;1553;-70
2021/03/30 13:55:28;;;;;;;;;;;20.10;58.70;;;;;;5046405;28;1732;-70
2021/03/30 13:57:54;;;;;;;;;;;20.10;58.70;;;;;;5053872;28;1714;-69
2021/03/30 14:00:20;;;;;;;;;;;20.10;58.60;;;;;;5072790;28;1898;-69
2021/03/30 14:02:45;;;;;;;;;;;20.00;58.50;;;;;;5049092;28;1553;-69
2021/03/30 14:05:11;;;;;;;;;;;20.10;58.70;;;;;;5052001;28;1642;-69
2021/03/30 14:07:36;;;;;;;;;;;20.10;58.70;;;;;;5054579;28;1448;-70
2021/03/30 14:10:03;;;;;;;;;;;20.10;58.80;;;;;;5072963;28;1586;-70
2021/03/30 14:12:36;;;;;;;;;;;20.10;58.70;;;;;;5072686;28;1361;-70
2021/03/30 14:15:06;;;;;;;;;;;20.10;58.60;;;;;;5056205;28;1506;-69
2021/03/30 14:19:59;;;;;;;;;;;20.10;58.60;;;;;;5059458;28;1959;-70
2021/03/30 14:22:31;;;;;;;;;;;20.10;58.60;;;;;;5072974;28;1655;-69
2021/03/30 14:24:58;;;;;;;;;;;20.10;58.70;;;;;;5072433;28;1544;-69
2021/03/30 14:27:25;;;;;;;;;;;20.10;58.70;;;;;;5071853;28;1376;-69
2021/03/30 14:29:51;;;;;;;;;;;20.10;58.70;;;;;;5054620;28;1497;-70
2021/03/30 14:32:20;;;;;;;;;;;20.10;58.70;;;;;;5072855;28;1357;-69
2021/03/30 14:34:47;;;;;;;;;;;20.10;58.70;;;;;;5054691;28;1596;-68
2021/03/30 14:37:13;;;;;;;;;;;20.10;58.80;;;;;;5025614;28;1599;-69